Time;durP1;ratioP1;P1;durP2;ratioP2;P2;SDS_P1;SDS_P2;PMS_P1;PMS_P2;Temp;Humidity;BMP_temperature;BMP_pressure;BME280_temperature;BME280_humidity;BME280_pressure;Samples;Min_cycle;Max_cycle;Signal;HPM_P1;HPM_P2
2021/07/13 05:30:18;;;;;;;13.40;12.05;;;;;;;20.21;88.94;99997.23;1769715;75;27303;-68
2021/07/13 05:32:45;;;;;;;17.90;12.30;;;;;;;20.23;88.60;99994.91;1654604;84;26472;-68
2021/07/13 05:35:12;;;;;;;21.80;13.72;;;;;;;20.23;88.75;99997.66;1687918;84;25872;-68
2021/07/13 05:37:38;;;;;;;15.25;12.05;;;;;;;20.26;88.90;99993.56;1683626;83;25847;-68
2021/07/13 05:40:07;;;;;;;15.05;11.70;;;;;;;20.26;88.77;99985.89;1701497;83;27359;-68
2021/07/13 05:42:35;;;;;;;54.55;50.85;;;;;;;20.26;88.49;99985.89;1667598;84;25718;-68
2021/07/13 05:45:05;;;;;;;14.13;11.97;;;;;;;20.27;88.24;99986.10;1687894;83;26551;-67
2021/07/13 05:47:32;;;;;;;15.50;11.60;;;;;;;20.26;88.31;99993.56;1696234;83;25967;-67
2021/07/13 05:49:59;;;;;;;14.13;11.88;;;;;;;20.28;88.41;99990.44;1695371;83;25468;-67
2021/07/13 05:52:26;;;;;;;15.65;12.50;;;;;;;20.31;88.69;99994.58;1680927;83;27394;-67
2021/07/13 05:54:53;;;;;;;12.55;10.95;;;;;;;20.37;88.81;99987.35;1677916;83;25832;-67
2021/07/13 05:57:19;;;;;;;15.70;13.03;;;;;;;20.42;88.53;99993.27;1680510;83;25801;-67
2021/07/13 05:59:45;;;;;;;13.93;11.20;;;;;;;20.49;89.37;99995.27;1688118;83;26267;-67
2021/07/13 06:02:11;;;;;;;13.05;11.75;;;;;;;20.59;89.71;99997.88;1718793;82;25899;-68
2021/07/13 06:04:38;;;;;;;14.35;11.35;;;;;;;20.67;89.31;99998.12;1716331;82;27288;-67
2021/07/13 06:07:04;;;;;;;13.85;11.45;;;;;;;20.72;89.06;99997.76;1693570;83;25433;-67
2021/07/13 06:09:31;;;;;;;12.68;11.38;;;;;;;20.82;89.63;99997.05;1688490;82;25804;-67
2021/07/13 06:11:59;;;;;;;13.88;11.30;;;;;;;20.93;89.45;100008.68;1699763;83;25922;-67
2021/07/13 06:14:25;;;;;;;12.45;10.65;;;;;;;21.02;89.75;100008.50;1717476;82;25863;-71
2021/07/13 06:16:52;;;;;;;14.23;10.03;;;;;;;21.10;88.91;100023.67;1718530;82;27299;-71
2021/07/13 06:19:19;;;;;;;14.55;9.35;;;;;;;21.13;88.50;100040.75;1716999;82;25851;-71
2021/07/13 06:21:46;;;;;;;13.25;9.10;;;;;;;21.12;87.43;100044.69;1717929;82;25750;-71
2021/07/13 06:24:13;;;;;;;11.33;10.20;;;;;;;21.11;87.43;100054.88;1708210;83;25912;-71
2021/07/13 06:26:40;;;;;;;10.65;9.55;;;;;;;21.14;87.51;100058.23;1714175;82;25391;-70
2021/07/13 06:29:06;;;;;;;10.60;9.35;;;;;;;21.16;87.14;100055.11;1719864;82;27964;-71
2021/07/13 06:31:33;;;;;;;15.10;12.10;;;;;;;21.14;87.47;100045.86;1714029;82;25916;-71
2021/07/13 06:34:00;;;;;;;10.45;9.35;;;;;;;21.17;87.34;100040.20;1712135;82;25390;-71
2021/07/13 06:36:27;;;;;;;15.43;9.05;;;;;;;21.15;87.21;100033.70;1713244;82;26080;-71
2021/07/13 06:38:53;;;;;;;15.18;10.05;;;;;;;21.18;87.71;100031.56;1689112;83;25867;-71
2021/07/13 06:41:20;;;;;;;12.98;10.10;;;;;;;21.24;87.92;100038.84;1676629;82;27519;-71
2021/07/13 06:43:46;;;;;;;15.23;13.62;;;;;;;;;;1670931;83;25648;-71
2021/07/13 06:46:12;;;;;;;24.23;21.95;;;;;;;21.25;86.84;100044.55;1683202;83;25871;-71
2021/07/13 06:48:39;;;;;;;11.53;9.38;;;;;;;21.28;87.39;100041.00;1670904;84;25926;-71
2021/07/13 06:51:05;;;;;;;11.30;10.10;;;;;;;21.33;87.98;100046.72;1674801;82;25716;-71
2021/07/13 06:53:32;;;;;;;13.80;9.40;;;;;;;21.39;87.97;100054.81;1677662;82;27920;-70
2021/07/13 06:55:58;;;;;;;14.20;9.88;;;;;;;21.41;87.71;100073.86;1683753;82;25816;-71
2021/07/13 06:58:26;;;;;;;58.00;54.00;;;;;;;21.44;87.98;100081.94;1661174;84;25896;-70
2021/07/13 07:00:53;;;;;;;11.55;9.80;;;;;;;21.47;87.76;100083.95;1627955;86;26557;-71
2021/07/13 07:03:19;;;;;;;13.95;9.45;;;;;;;21.46;87.17;100090.59;1672515;84;25599;-71
2021/07/13 07:05:45;;;;;;;75.70;71.10;;;;;;;21.45;87.12;100080.75;1662207;83;27343;-72
2021/07/13 07:08:12;;;;;;;77.42;72.32;;;;;;;21.44;87.43;100083.31;1674425;83;25763;-71
2021/07/13 07:10:38;;;;;;;38.75;35.98;;;;;;;21.43;87.02;100074.25;1643769;84;25517;-71
2021/07/13 07:13:04;;;;;;;13.53;10.45;;;;;;;21.48;86.80;100075.09;1679098;83;26036;-71
2021/07/13 07:15:31;;;;;;;14.13;10.88;;;;;;;21.55;87.68;100070.39;1670743;83;25884;-71
2021/07/13 07:17:57;;;;;;;13.70;10.75;;;;;;;21.61;88.29;100062.56;1674667;82;27011;-72
2021/07/13 07:20:27;;;;;;;16.35;10.53;;;;;;;21.71;88.69;100064.55;1635438;86;25543;-71
2021/07/13 07:22:56;;;;;;;12.78;9.25;;;;;;;21.74;87.82;100068.47;1648543;85;25954;-71
2021/07/13 07:25:23;;;;;;;13.47;9.27;;;;;;;21.75;86.94;100053.55;1653977;85;26614;-72
2021/07/13 07:27:55;;;;;;;15.63;9.65;;;;;;;21.80;87.36;100067.70;1650747;85;25512;-72
2021/07/13 07:30:19;;;;;;;15.58;12.10;;;;;;;21.85;87.35;100063.78;1667156;83;29887;-68
2021/07/13 07:32:45;;;;;;;11.50;9.78;;;;;;;21.86;87.52;100064.56;1656216;85;25856;-68
2021/07/13 07:35:12;;;;;;;14.73;9.88;;;;;;;21.88;87.33;100063.58;1673066;84;25444;-68
2021/07/13 07:37:40;;;;;;;10.58;9.25;;;;;;;21.88;86.91;100069.89;1664853;84;26441;-68
2021/07/13 07:40:11;;;;;;;12.43;9.50;;;;;;;21.87;86.59;100076.56;1668373;84;25470;-68
2021/07/13 07:42:38;;;;;;;14.85;10.25;;;;;;;21.88;87.08;100070.45;1642941;85;27327;-68
2021/07/13 07:45:07;;;;;;;13.98;10.05;;;;;;;21.94;87.05;100076.56;1658386;84;25872;-68
2021/07/13 07:47:33;;;;;;;14.57;11.20;;;;;;;21.93;86.54;100066.75;1646458;84;25690;-68
2021/07/13 07:50:00;;;;;;;12.30;10.30;;;;;;;22.01;88.15;100055.94;1654628;84;26533;-68
2021/07/13 07:52:26;;;;;;;37.93;34.83;;;;;;;22.18;89.10;100043.32;1656483;85;25903;-68
2021/07/13 07:54:53;;;;;;;13.32;10.40;;;;;;;22.30;88.88;100059.30;1652701;85;27322;-68
2021/07/13 07:57:19;;;;;;;32.93;30.50;;;;;;;22.35;88.40;100065.19;1661237;85;25887;-68
2021/07/13 07:59:45;;;;;;;12.45;9.88;;;;;;;22.40;87.71;100065.39;1649151;85;25801;-68
2021/07/13 08:02:12;;;;;;;10.50;9.43;;;;;;;22.42;87.32;100044.33;1612976;85;25949;-68
2021/07/13 08:04:38;;;;;;;78.70;73.67;;;;;;;22.43;87.16;100045.91;1662846;83;26063;-68
2021/07/13 08:07:04;;;;;;;13.55;9.40;;;;;;;22.44;87.44;100041.39;1673105;83;27981;-68
2021/07/13 08:09:31;;;;;;;46.98;43.83;;;;;;;22.50;87.47;100044.52;1640278;85;25687;-68
2021/07/13 08:11:57;;;;;;;12.00;10.53;;;;;;;22.54;87.48;100048.84;1681639;83;25957;-72
2021/07/13 08:14:24;;;;;;;12.00;10.28;;;;;;;22.59;87.31;100059.27;1644131;85;25950;-68
2021/07/13 08:16:52;;;;;;;18.05;10.70;;;;;;;22.63;87.47;100054.52;1634271;86;25467;-72
2021/07/13 08:19:18;;;;;;;12.82;9.15;;;;;;;22.67;87.71;100062.98;1635624;86;27329;-72
2021/07/13 08:21:45;;;;;;;12.53;10.58;;;;;;;22.68;86.92;100080.30;1630234;86;25933;-71
2021/07/13 08:24:12;;;;;;;13.00;10.23;;;;;;;22.66;86.33;100086.80;1664689;83;25902;-68
2021/07/13 08:26:40;;;;;;;14.03;10.30;;;;;;;22.59;85.95;100064.78;1670372;81;25939;-68
2021/07/13 08:29:07;;;;;;;33.18;30.90;;;;;;;22.55;86.51;100056.52;1676656;83;25857;-71
2021/07/13 08:31:33;;;;;;;12.07;10.78;;;;;;;22.57;86.99;100054.15;1680240;84;28042;-68
2021/07/13 08:33:59;;;;;;;13.15;10.48;;;;;;;22.59;86.98;100073.05;1675464;84;25762;-68
2021/07/13 08:36:26;;;;;;;11.97;10.70;;;;;;;22.59;86.67;100095.88;1644304;85;25611;-68
2021/07/13 08:38:53;;;;;;;13.65;9.93;;;;;;;22.52;86.38;100106.91;1670847;84;25922;-68
2021/07/13 08:41:21;;;;;;;13.18;10.15;;;;;;;22.45;86.06;100113.81;1702774;82;25823;-68
2021/07/13 08:43:50;;;;;;;17.65;10.25;;;;;;;22.37;86.03;100126.22;1665929;84;27294;-68
2021/07/13 08:46:19;;;;;;;16.35;10.72;;;;;;;22.26;85.91;100136.41;1665868;84;25925;-72
2021/07/13 08:48:49;;;;;;;14.80;9.78;;;;;;;22.14;85.48;100132.06;1668760;84;25877;-71
2021/07/13 08:51:18;;;;;;;13.30;9.75;;;;;;;22.01;85.02;100127.53;1709235;83;26085;-71
2021/07/13 08:53:44;;;;;;;10.65;9.10;;;;;;;21.86;84.62;100125.91;1714378;82;25851;-71
2021/07/13 08:56:11;;;;;;;11.88;9.83;;;;;;;21.75;84.71;100118.23;1669772;84;27379;-72
2021/07/13 08:58:37;;;;;;;13.80;9.90;;;;;;;21.64;84.88;100092.84;1662876;84;25945;-72
2021/07/13 09:01:04;;;;;;;17.12;10.80;;;;;;;21.60;85.23;100098.13;1658069;84;25816;-72
2021/07/13 09:03:34;;;;;;;13.22;11.38;;;;;;;21.54;85.25;100096.34;1672693;84;25981;-72
2021/07/13 09:06:02;;;;;;;14.83;11.45;;;;;;;21.49;85.57;100079.41;1663743;84;25487;-72
2021/07/13 09:08:32;;;;;;;17.10;11.85;;;;;;;21.48;86.08;100070.97;1666464;84;29518;-72
2021/07/13 09:11:16;;;;;;;16.07;11.30;;;;;;;21.48;86.67;100075.09;1653547;84;26296;-72
2021/07/13 09:13:50;;;;;;;54.93;50.50;;;;;;;21.49;87.03;100071.96;1661991;84;25820;-72
2021/07/13 09:16:21;;;;;;;17.30;11.73;;;;;;;21.49;87.21;100064.28;1677268;83;26530;-72
2021/07/13 09:18:52;;;;;;;17.23;12.03;;;;;;;21.47;87.24;100037.18;1680458;83;26071;-72
2021/07/13 09:21:26;;;;;;;17.40;13.30;;;;;;;21.46;87.40;100019.05;1682742;83;27953;-72
2021/07/13 09:24:16;;;;;;;16.45;12.13;;;;;;;21.47;87.52;100021.23;1640428;85;25860;-72
2021/07/13 09:26:56;;;;;;;15.60;11.35;;;;;;;21.43;87.56;100056.38;1674626;83;25533;-71
2021/07/13 09:29:41;;;;;;;59.93;55.70;;;;;;;21.39;87.21;100044.58;1671006;83;25956;-71
2021/07/13 09:32:32;;;;;;;68.57;64.07;;;;;;;21.35;87.02;100024.54;1663841;83;25753;-72
2021/07/13 09:35:05;;;;;;;82.80;76.50;;;;;;;21.32;87.25;100008.81;1675478;82;27343;-73
2021/07/13 09:37:39;;;;;;;81.32;76.12;;;;;;;21.28;87.19;100028.62;1694513;83;25884;-72
2021/07/13 09:40:12;;;;;;;80.00;74.85;;;;;;;21.22;87.13;100037.07;1683531;83;26158;-70
2021/07/13 09:42:51;;;;;;;30.17;27.98;;;;;;;21.12;86.43;100043.31;1708248;83;25887;-71
2021/07/13 09:45:28;;;;;;;13.20;11.83;;;;;;;20.98;85.73;100020.08;1693344;83;26111;-71
2021/07/13 09:47:58;;;;;;;13.95;12.43;;;;;;;20.87;85.83;99973.88;1677280;83;27250;-72
2021/07/13 09:50:45;;;;;;;14.65;11.93;;;;;;;20.79;86.38;99957.16;1677073;83;25889;-72
2021/07/13 09:53:15;;;;;;;14.13;11.43;;;;;;;20.69;86.46;99932.61;1685880;83;25853;-72
2021/07/13 09:55:47;;;;;;;17.27;10.63;;;;;;;20.59;86.45;99918.98;1660289;85;26504;-72
2021/07/13 09:58:23;;;;;;;79.27;74.32;;;;;;;20.52;86.14;99981.55;1663675;84;25847;-72
2021/07/13 10:00:58;;;;;;;31.07;28.83;;;;;;;20.41;86.12;99977.94;1710915;82;27334;-72
2021/07/13 10:03:27;;;;;;;12.35;11.12;;;;;;;20.39;86.43;99958.91;1661603;84;25739;-72
2021/07/13 10:05:56;;;;;;;80.15;75.03;;;;;;;20.36;86.77;99987.14;1662060;83;25525;-72
2021/07/13 10:08:23;;;;;;;81.82;76.70;;;;;;;20.31;86.96;100001.44;1707089;83;26028;-71
2021/07/13 10:10:51;;;;;;;83.50;77.95;;;;;;;20.29;87.58;99982.39;1671290;84;25785;-72
2021/07/13 10:13:19;;;;;;;83.33;77.65;;;;;;;20.29;87.91;99987.28;1713894;82;28173;-72
2021/07/13 10:15:48;;;;;;;82.30;76.90;;;;;;;20.31;88.32;100004.19;1713106;83;25871;-72
2021/07/13 10:18:15;;;;;;;83.62;78.02;;;;;;;20.31;88.31;99997.32;1703707;83;25406;-72
2021/07/13 10:20:42;;;;;;;83.40;77.70;;;;;;;20.34;88.75;99985.55;1713015;83;27347;-71
2021/07/13 10:23:12;;;;;;;82.25;76.95;;;;;;;20.40;89.34;99989.31;1687245;83;25916;-71
2021/07/13 10:25:42;;;;;;;84.25;78.70;;;;;;;20.45;89.58;99978.77;1713931;82;27557;-71
2021/07/13 10:28:10;;;;;;;46.23;42.58;;;;;;;20.52;89.85;99981.55;1713358;82;25876;-72
2021/07/13 10:30:46;;;;;;;85.75;79.47;;;;;;;20.62;89.70;99982.81;1693019;82;25872;-72
2021/07/13 10:33:38;;;;;;;82.33;76.62;;;;;;;20.68;89.70;99968.89;1684199;83;25928;-72
2021/07/13 10:36:43;;;;;;;84.80;79.42;;;;;;;20.76;89.64;99950.48;1698175;83;25800;-72
2021/07/13 10:39:30;;;;;;;81.67;76.37;;;;;;;20.82;89.56;99955.83;1694353;83;27318;-71
2021/07/13 10:42:00;;;;;;;82.67;77.35;;;;;;;20.89;89.23;99935.80;1682154;82;25819;-73
2021/07/13 10:44:45;;;;;;;84.30;79.10;;;;;;;21.04;89.70;99944.88;1689780;83;25522;-73
2021/07/13 10:47:30;;;;;;;81.80;76.77;;;;;;;21.16;89.77;99953.36;1672950;83;26528;-73
2021/07/13 10:50:28;;;;;;;83.35;77.95;;;;;;;21.27;88.72;99975.59;1682535;83;25493;-68
2021/07/13 10:53:05;;;;;;;81.80;76.50;;;;;;;21.32;88.35;99979.13;1675496;83;27330;-68
2021/07/13 10:55:37;;;;;;;83.58;77.80;;;;;;;21.51;89.25;99983.53;1679967;82;25819;-68
2021/07/13 10:58:15;;;;;;;85.72;80.28;;;;;;;21.82;92.61;99994.36;1684685;83;25420;-68
2021/07/13 11:00:58;;;;;;;85.77;80.03;;;;;;;22.45;98.31;99989.81;1687770;83;26565;-68
2021/07/13 11:03:34;;;;;;;84.75;79.35;;;;;;;23.03;96.43;99987.03;1692768;82;25916;-67
2021/07/13 11:06:16;;;;;;;82.62;77.25;;;;;;;23.59;96.07;99971.17;1670294;84;28011;-70
2021/07/13 11:08:49;;;;;;;84.07;78.72;;;;;;;24.17;94.65;99964.59;1667449;82;25649;-70
2021/07/13 11:11:24;;;;;;;81.37;76.28;;;;;;;24.77;93.34;99965.13;1675757;83;25798;-69
2021/07/13 11:14:05;;;;;;;82.05;77.03;;;;;;;25.48;91.86;99968.92;1688830;83;25992;-68
2021/07/13 11:16:43;;;;;;;62.98;58.98;;;;;;;26.09;89.41;99961.03;1663758;83;25597;-67
2021/07/13 11:19:16;;;;;;;29.27;26.93;;;;;;;26.77;87.68;99967.28;1670288;83;27352;-67
2021/07/13 11:21:47;;;;;;;44.58;41.73;;;;;;;27.45;86.84;99960.06;1670577;84;25824;-68
2021/07/13 11:24:21;;;;;;;12.35;11.15;;;;;;;28.09;82.23;99961.30;1670948;83;25833;-67
2021/07/13 11:26:51;;;;;;;12.07;10.88;;;;;;;28.50;81.19;99957.59;1671571;83;26698;-68
2021/07/13 11:29:24;;;;;;;11.93;10.72;;;;;;;29.00;79.54;99951.22;1649025;83;25534;-70
2021/07/13 11:31:59;;;;;;;49.10;46.02;;;;;;;29.52;77.51;99956.95;1675233;84;27369;-70
2021/07/13 11:34:32;;;;;;;11.45;9.70;;;;;;;29.98;75.97;99956.66;1677136;83;25725;-70
2021/07/13 11:36:59;;;;;;;12.13;10.08;;;;;;;30.50;74.59;99959.44;1674158;83;25819;-71
2021/07/13 11:39:33;;;;;;;10.90;9.80;;;;;;;30.95;73.94;99958.78;1672758;83;25994;-66
2021/07/13 11:42:08;;;;;;;10.78;9.60;;;;;;;31.40;71.63;99962.24;1673677;83;26266;-66
2021/07/13 11:44:39;;;;;;;10.35;9.35;;;;;;;31.73;69.96;99954.73;1658535;83;27415;-68
2021/07/13 11:47:14;;;;;;;15.25;9.90;;;;;;;32.05;68.89;99952.59;1654996;83;25864;-70
2021/07/13 11:49:42;;;;;;;10.58;9.48;;;;;;;32.32;68.05;99941.41;1666099;83;25506;-70
2021/07/13 11:52:12;;;;;;;10.35;9.38;;;;;;;32.63;66.12;99941.85;1676274;83;26633;-69
2021/07/13 11:54:43;;;;;;;10.88;9.85;;;;;;;32.94;65.69;99933.81;1669471;83;25848;-70
2021/07/13 11:57:18;;;;;;;11.05;10.05;;;;;;;33.23;64.57;99931.08;1668608;83;27442;-70
2021/07/13 11:59:45;;;;;;;11.57;10.03;;;;;;;33.46;63.58;99926.13;1666639;84;27175;-70
2021/07/13 12:02:14;;;;;;;11.93;9.88;;;;;;;33.69;62.42;99913.36;1683771;82;25472;-71
2021/07/13 12:04:44;;;;;;;10.23;9.38;;;;;;;33.86;61.18;99910.13;1648569;86;26562;-65
2021/07/13 12:07:11;;;;;;;11.48;9.70;;;;;;;34.01;60.35;99902.52;1651127;84;25812;-67
2021/07/13 12:09:40;;;;;;;10.70;9.68;;;;;;;34.18;60.12;99902.84;1631391;85;27345;-66
2021/07/13 12:12:12;;;;;;;;;;;;;;;34.41;59.74;99894.83;1638183;84;25977;-66
2021/07/13 12:14:46;;;;;;;9.98;9.08;;;;;;;34.55;56.72;99891.27;1696954;83;25481;-65
2021/07/13 12:17:16;;;;;;;9.95;9.03;;;;;;;34.50;56.38;99889.14;1654580;82;26817;-65
2021/07/13 12:19:43;;;;;;;10.08;9.15;;;;;;;34.53;56.32;99891.59;1681064;82;25447;-68
2021/07/13 12:22:22;;;;;;;9.55;8.65;;;;;;;34.46;55.59;99890.58;1698136;83;28270;-68
2021/07/13 12:24:49;;;;;;;;;;;;;;;34.48;56.52;99879.03;1712935;83;25706;-68
2021/07/13 12:27:19;;;;;;;10.33;9.53;;;;;;;34.51;53.71;99882.25;1711309;83;25820;-69
2021/07/13 12:29:57;;;;;;;11.30;10.28;;;;;;;34.61;54.81;99877.30;1711029;82;26493;-68
2021/07/13 12:32:32;;;;;;;10.23;9.33;;;;;;;34.64;52.55;99876.34;1712485;82;25670;-64
2021/07/13 12:35:11;;;;;;;11.78;9.00;;;;;;;34.53;52.70;99872.73;1715301;82;27912;-66
2021/07/13 12:37:35;;;;;;;10.48;9.40;;;;;;;34.68;53.07;99875.50;1687218;82;25895;-66
2021/07/13 12:40:07;;;;;;;10.75;9.45;;;;;;;34.57;50.31;99878.91;1670326;84;25716;-66
2021/07/13 12:42:38;;;;;;;11.08;9.75;;;;;;;34.22;50.25;99870.41;1666580;85;25951;-66
2021/07/13 12:45:22;;;;;;;10.30;9.30;;;;;;;34.27;50.82;99874.57;1663882;84;25499;-66
2021/07/13 12:47:54;;;;;;;11.45;10.28;;;;;;;34.41;50.92;99863.34;1659489;84;27392;-66
2021/07/13 12:50:32;;;;;;;10.90;9.90;;;;;;;34.64;51.07;99865.11;1663401;84;25894;-66
2021/07/13 12:53:09;;;;;;;11.00;10.00;;;;;;;34.91;50.41;99872.44;1711550;82;25409;-69
2021/07/13 12:55:44;;;;;;;11.87;10.77;;;;;;;35.05;49.46;99870.84;1718525;82;25983;-69
2021/07/13 12:58:24;;;;;;;12.20;11.10;;;;;;;35.25;50.16;99874.98;1715459;82;25905;-69
2021/07/13 13:00:54;;;;;;;13.00;10.65;;;;;;;35.44;49.08;99876.89;1697051;82;27938;-69
2021/07/13 13:03:28;;;;;;;11.68;10.60;;;;;;;35.50;48.57;99884.74;1690126;83;25979;-69
2021/07/13 13:06:00;;;;;;;12.20;10.68;;;;;;;35.41;48.29;99882.09;1666500;83;26003;-70
2021/07/13 13:08:40;;;;;;;11.97;10.85;;;;;;;35.60;48.55;99879.75;1667167;83;26470;-69
2021/07/13 13:11:11;;;;;;;15.03;11.20;;;;;;;35.60;48.55;99879.75;1666217;85;25846;-69
2021/07/13 13:13:43;;;;;;;12.33;11.12;;;;;;;35.79;47.41;99873.22;1632300;84;27352;-69
2021/07/13 13:16:22;;;;;;;13.00;11.33;;;;;;;35.77;46.62;99874.36;1669837;83;25870;-68
2021/07/13 13:18:50;;;;;;;11.93;10.82;;;;;;;35.63;46.53;99865.48;1671977;84;25654;-68
2021/07/13 13:21:18;;;;;;;12.20;11.15;;;;;;;35.67;46.55;99863.85;1689992;82;26681;-69
2021/07/13 13:23:45;;;;;;;12.28;10.68;;;;;;;35.74;46.34;99859.25;1668081;83;25717;-69
2021/07/13 13:26:11;;;;;;;12.15;11.05;;;;;;;35.71;46.12;99846.15;1669978;83;29613;-69
2021/07/13 13:28:39;;;;;;;12.13;10.90;;;;;;;35.92;45.08;99860.96;1680149;83;27202;-70
2021/07/13 13:31:05;;;;;;;14.03;11.88;;;;;;;35.92;45.08;99860.96;1687437;82;25836;-70
2021/07/13 13:33:32;;;;;;;12.55;11.30;;;;;;;35.72;44.85;99830.83;1687034;82;25906;-70
2021/07/13 13:36:13;;;;;;;12.28;11.00;;;;;;;35.71;43.96;99823.00;1670324;83;25717;-68
2021/07/13 13:38:39;;;;;;;12.88;11.80;;;;;;;35.68;44.63;99826.04;1660728;84;27343;-69
2021/07/13 13:41:05;;;;;;;12.28;11.10;;;;;;;35.70;44.81;99817.87;1671007;84;25999;-68
2021/07/13 13:43:32;;;;;;;14.43;11.45;;;;;;;35.61;44.01;99818.80;1674434;84;25812;-69
2021/07/13 13:45:59;;;;;;;12.78;11.45;;;;;;;35.47;44.54;99820.44;1666049;84;25926;-71
2021/07/13 13:48:26;;;;;;;12.90;11.80;;;;;;;35.47;44.54;99820.44;1673287;84;25431;-70
2021/07/13 13:50:52;;;;;;;12.60;11.38;;;;;;;35.58;44.59;99824.00;1652814;84;27516;-70
2021/07/13 13:53:19;;;;;;;15.48;11.95;;;;;;;35.44;43.96;99821.42;1665851;84;25831;-69
2021/07/13 13:55:46;;;;;;;13.30;11.95;;;;;;;35.33;44.01;99818.47;1665943;84;25723;-70
2021/07/13 13:58:13;;;;;;;15.60;11.85;;;;;;;35.41;44.04;99833.65;1672130;84;26367;-68
2021/07/13 14:00:39;;;;;;;15.28;12.30;;;;;;;35.24;44.45;99809.55;1662211;85;25886;-70
2021/07/13 14:03:06;;;;;;;14.30;12.85;;;;;;;35.23;44.90;99809.42;1664384;84;27387;-68
2021/07/13 14:05:35;;;;;;;12.93;11.93;;;;;;;35.15;44.22;99809.67;1664682;84;25694;-68
2021/07/13 14:08:03;;;;;;;12.98;11.80;;;;;;;35.13;44.42;99806.59;1656182;85;27068;-68
2021/07/13 14:10:30;;;;;;;13.22;11.93;;;;;;;35.07;44.66;99801.52;1652238;84;25936;-68
2021/07/13 14:12:56;;;;;;;13.58;12.07;;;;;;;35.06;44.57;99803.56;1660360;84;25787;-68
2021/07/13 14:15:22;;;;;;;13.62;12.37;;;;;;;34.98;44.34;99808.05;1638719;86;27684;-68
2021/07/13 14:17:49;;;;;;;14.43;12.68;;;;;;;34.88;43.93;99797.56;1670474;83;26614;-68
2021/07/13 14:20:17;;;;;;;13.83;12.50;;;;;;;34.75;43.94;99799.94;1666174;84;25517;-68
2021/07/13 14:22:45;;;;;;;13.13;11.90;;;;;;;34.58;43.34;99794.83;1648115;84;26665;-68
2021/07/13 14:25:16;;;;;;;14.07;12.80;;;;;;;34.46;44.27;99795.14;1670730;83;26001;-68
2021/07/13 14:27:44;;;;;;;14.75;13.40;;;;;;;34.43;44.58;99802.52;1678582;83;27927;-68
2021/07/13 14:30:13;;;;;;;14.20;12.88;;;;;;;34.47;45.10;99805.88;1672497;83;25765;-68
2021/07/13 14:32:43;;;;;;;16.25;14.60;;;;;;;34.50;45.22;99806.32;1675077;83;25865;-68
2021/07/13 14:35:12;;;;;;;15.05;13.65;;;;;;;34.50;44.72;99806.32;1675264;83;26002;-68
2021/07/13 14:37:39;;;;;;;;;;;;;;;34.44;45.11;99802.64;1666446;84;25864;-68
2021/07/13 14:40:08;;;;;;;14.50;13.20;;;;;;;34.46;44.81;99802.92;1672195;84;27524;-68
2021/07/13 14:42:35;;;;;;;14.68;13.38;;;;;;;34.47;44.97;99800.91;1688265;83;25477;-69
2021/07/13 14:45:03;;;;;;;14.40;13.13;;;;;;;34.35;44.64;99803.53;1707760;82;25798;-69
2021/07/13 14:47:31;;;;;;;15.03;13.65;;;;;;;34.17;44.93;99801.66;1682328;83;26508;-69
2021/07/13 14:49:59;;;;;;;14.28;12.95;;;;;;;34.09;44.96;99799.12;1679572;84;25526;-69
2021/07/13 14:52:26;;;;;;;16.45;12.68;;;;;;;33.99;44.89;99797.67;1673667;84;28039;-69
2021/07/13 14:54:52;;;;;;;15.43;13.55;;;;;;;33.83;44.56;99802.50;1665440;84;25863;-69
2021/07/13 14:57:19;;;;;;;15.45;14.13;;;;;;;33.72;45.00;99801.53;1670702;84;25429;-69
2021/07/13 14:59:45;;;;;;;16.20;14.60;;;;;;;33.59;45.00;99796.14;1668926;84;25440;-69
2021/07/13 15:02:11;;;;;;;13.62;12.43;;;;;;;33.50;45.94;99800.57;1649443;85;26488;-69
2021/07/13 15:04:38;;;;;;;18.02;14.13;;;;;;;33.44;45.63;99798.91;1657396;86;27352;-70
2021/07/13 15:07:06;;;;;;;15.23;13.75;;;;;;;33.34;45.75;99789.82;1648940;85;25854;-69
2021/07/13 15:09:33;;;;;;;14.73;13.62;;;;;;;33.34;46.13;99789.02;1649681;85;25607;-69
2021/07/13 15:11:59;;;;;;;14.03;12.78;;;;;;;33.26;45.82;99783.03;1657549;85;26040;-70
2021/07/13 15:14:25;;;;;;;14.60;13.25;;;;;;;33.21;45.84;99778.09;1654763;85;25850;-69
2021/07/13 15:16:52;;;;;;;16.00;14.40;;;;;;;33.23;46.78;99774.17;1655611;85;27338;-69
2021/07/13 15:19:19;;;;;;;15.48;13.78;;;;;;;33.24;47.25;99768.73;1663226;85;27152;-69
2021/07/13 15:21:47;;;;;;;14.45;13.22;;;;;;;33.29;46.61;99768.06;1664802;84;26306;-69
2021/07/13 15:24:13;;;;;;;15.38;13.75;;;;;;;33.35;46.57;99764.73;1640151;85;25914;-70
2021/07/13 15:26:40;;;;;;;16.07;14.38;;;;;;;33.38;46.63;99763.77;1663283;84;25410;-70
2021/07/13 15:29:07;;;;;;;14.70;13.10;;;;;;;33.34;46.93;99769.41;1668224;84;27457;-69
2021/07/13 15:31:33;;;;;;;15.75;14.10;;;;;;;33.27;46.87;99762.94;1697902;83;25911;-69
2021/07/13 15:34:01;;;;;;;13.50;12.30;;;;;;;33.12;46.71;99761.45;1673364;82;25449;-70
2021/07/13 15:36:28;;;;;;;13.95;12.60;;;;;;;32.92;46.62;99759.25;1680043;83;25957;-70
2021/07/13 15:38:55;;;;;;;15.15;13.48;;;;;;;32.74;46.62;99755.16;1687799;84;25800;-69
2021/07/13 15:41:22;;;;;;;13.93;12.70;;;;;;;32.54;46.98;99757.89;1643275;84;27441;-70
2021/07/13 15:43:50;;;;;;;12.98;11.78;;;;;;;32.33;47.00;99749.89;1675549;84;25647;-70
2021/07/13 15:46:18;;;;;;;14.20;12.82;;;;;;;32.12;47.30;99750.28;1684650;82;25803;-70
2021/07/13 15:48:44;;;;;;;14.50;13.20;;;;;;;31.93;47.61;99750.94;1677541;84;25998;-70
2021/07/13 15:51:11;;;;;;;14.03;12.78;;;;;;;31.75;48.29;99748.17;1684813;84;25423;-69
2021/07/13 15:53:37;;;;;;;14.85;13.35;;;;;;;31.58;48.73;99756.11;1685702;84;26691;-70
2021/07/13 15:56:05;;;;;;;14.68;13.30;;;;;;;31.46;49.19;99764.78;1678307;84;27168;-70
2021/07/13 15:58:32;;;;;;;14.70;13.22;;;;;;;31.28;49.70;99763.55;1660057;84;25896;-70
2021/07/13 16:00:58;;;;;;;15.28;13.93;;;;;;;31.18;50.44;99758.43;1683894;84;26067;-70
2021/07/13 16:03:25;;;;;;;17.35;13.93;;;;;;;31.03;50.80;99763.83;1681792;84;25904;-70
2021/07/13 16:05:51;;;;;;;19.67;17.73;;;;;;;30.89;50.75;99765.95;1681681;83;27325;-70
2021/07/13 16:08:18;;;;;;;15.63;14.03;;;;;;;30.75;50.88;99765.75;1665357;84;25500;-69
2021/07/13 16:10:44;;;;;;;15.55;13.30;;;;;;;30.59;51.09;99769.58;1691037;83;25572;-70
2021/07/13 16:13:14;;;;;;;14.68;13.08;;;;;;;30.41;51.67;99763.30;1684191;83;26070;-70
2021/07/13 16:15:40;;;;;;;14.45;12.95;;;;;;;30.24;51.69;99780.27;1679667;84;25873;-70
2021/07/13 16:18:06;;;;;;;13.45;12.07;;;;;;;30.11;51.81;99790.72;1686764;83;27387;-70
2021/07/13 16:20:32;;;;;;;14.07;12.70;;;;;;;29.92;51.55;99784.26;1690306;83;25815;-70
2021/07/13 16:22:59;;;;;;;13.40;12.03;;;;;;;29.73;51.69;99768.77;1684831;83;25834;-70
2021/07/13 16:25:25;;;;;;;14.13;11.45;;;;;;;29.64;51.77;99774.27;1692328;83;25979;-70
2021/07/13 16:27:52;;;;;;;12.63;11.50;;;;;;;29.47;51.10;99777.84;1685389;83;25613;-70
2021/07/13 16:30:19;;;;;;;14.33;12.95;;;;;;;29.34;51.73;99778.53;1688794;83;27319;-70
2021/07/13 16:32:46;;;;;;;15.88;12.55;;;;;;;29.24;52.62;99774.25;1671110;83;25903;-70
2021/07/13 16:35:13;;;;;;;13.20;11.88;;;;;;;29.16;53.00;99769.34;1686979;83;25593;-70
2021/07/13 16:37:43;;;;;;;12.90;11.68;;;;;;;29.06;53.00;99776.23;1690996;83;26390;-70
2021/07/13 16:40:13;;;;;;;;;;;;;;;28.96;53.00;99784.92;1722093;82;25504;-70
2021/07/13 16:42:41;;;;;;;13.03;11.75;;;;;;;28.73;52.92;99788.86;1702904;83;27323;-70
2021/07/13 16:45:11;;;;;;;15.38;12.45;;;;;;;28.44;52.71;99782.14;1715008;82;25837;-70
2021/07/13 16:47:38;;;;;;;14.80;11.40;;;;;;;28.27;53.00;99787.02;1717834;82;25870;-70
2021/07/13 16:50:08;;;;;;;17.25;11.40;;;;;;;28.09;53.36;99771.47;1716285;82;26181;-70
2021/07/13 16:52:35;;;;;;;13.88;12.78;;;;;;;27.99;53.97;99776.73;1719120;82;25865;-70
2021/07/13 16:55:01;;;;;;;13.40;12.13;;;;;;;27.89;54.34;99778.56;1690869;82;27519;-70
2021/07/13 16:57:28;;;;;;;14.55;12.47;;;;;;;27.81;55.10;99783.55;1716496;82;25693;-70